Home > Products > Valid Products > TAF

000
FTUS42 KCHS 010530
TAFSAV
TAF
KSAV 010530Z 0106/0206 23008KT P6SM SCT060 BKN100
      TEMPO 0106/0108 -SHRA
     FM011200 29008KT P6SM SCT060
     FM012100 08008KT P6SM SCT060=



000
FTUS42 KCHS 010530
TAFCHS
TAF
KCHS 010530Z 0106/0206 26008KT P6SM BKN250
     FM011400 04009KT P6SM SCT050 BKN090
     FM011900 08012KT P6SM SCT050
     FM020000 06007KT P6SM SKC=



000
FTUS42 KCHS 010312 AAA
TAFSAV
TAF AMD
KSAV 010312Z 0103/0124 23010KT P6SM SCT060 BKN100
      TEMPO 0104/0106 5SM -RA BR SCT030 BKN060
     FM011200 30006KT P6SM SCT060
     FM012100 10008KT P6SM SCT060=



000
FTUS42 KCHS 312332
TAFSAV
TAF
KSAV 312332Z 0100/0124 23010KT P6SM SCT060
     FM010300 24006KT P6SM BKN060
     FM011200 30006KT P6SM SCT060
     FM012100 10008KT P6SM SCT060=



000
FTUS42 KCHS 312332
TAFCHS
TAF
KCHS 312332Z 0100/0124 21008KT P6SM SKC
     FM010700 26006KT P6SM BKN050
     FM011400 04010KT P6SM BKN050
     FM012000 12008KT P6SM SCT060=



000
FTUS42 KCHS 312332
TAFCHS
TAF
KCHS 312332Z 0100/0124 21008KT P6SM SKC
     FM010700 26006KT P6SM BKN050
     FM011400 04010KT P6SM BKN050
     FM012000 12008KT P6SM SCT060=



000
FTUS42 KCHS 312332
TAFSAV
TAF
KSAV 312332Z 0100/0124 23010KT P6SM SCT060
     FM010300 24006KT P6SM BKN060
     FM011200 30006KT P6SM SCT060
     FM012100 10008KT P6SM SCT060=



000
FTUS42 KCHS 312206 AAB
TAFSAV
TAF AMD
KSAV 312206Z 3122/0118 23012G18KT P6SM SCT060
     FM010000 23007KT P6SM SCT050 BKN080
     FM011200 30006KT P6SM BKN035
     FM011600 03008KT P6SM SCT040 BKN080=



000
FTUS42 KCHS 312206 AAB
TAFSAV
TAF AMD
KSAV 312206Z 3122/0118 23012G18KT P6SM SCT060
     FM010000 23007KT P6SM SCT050 BKN080
     FM011200 30006KT P6SM BKN035
     FM011600 03008KT P6SM SCT040 BKN080=



000
FTUS42 KCHS 312032 AAA
TAFSAV
TAF AMD
KSAV 312032Z 3121/0118 28012G18KT P6SM SCT060
     FM312300 23007KT P6SM SCT050 BKN080
     FM011200 30006KT P6SM BKN035
     FM011600 03008KT P6SM SCT040 BKN080=



000
FTUS42 KCHS 312032 AAA
TAFSAV
TAF AMD
KSAV 312032Z 3121/0118 28012G18KT P6SM SCT060
     FM312300 23007KT P6SM SCT050 BKN080
     FM011200 30006KT P6SM BKN035
     FM011600 03008KT P6SM SCT040 BKN080=



000
FTUS42 KCHS 312031 AAA
TAFCHS
TAF AMD
KCHS 312031Z 3121/0118 21012G18KT P6SM FEW050
     FM312300 21010KT P6SM FEW050
     FM010700 29006KT P6SM SCT050
     FM011400 04010KT P6SM FEW050=



000
FTUS42 KCHS 312031 AAA
TAFCHS
TAF AMD
KCHS 312031Z 3121/0118 21012G18KT P6SM FEW050
     FM312300 21010KT P6SM FEW050
     FM010700 29006KT P6SM SCT050
     FM011400 04010KT P6SM FEW050=



000
FTUS42 KCHS 311733
TAFCHS
TAF
KCHS 311733Z 3118/0118 26010G18KT P6SM FEW250
     FM311900 23012G20KT P6SM FEW120
     FM312300 21010KT P6SM FEW050 SCT120 BKN200
     FM010700 29006KT P6SM SCT050 BKN250
     FM011400 04010KT P6SM FEW050=



000
FTUS42 KCHS 311733
TAFSAV
TAF
KSAV 311733Z 3118/0118 28008KT P6SM FEW040
     FM311900 23012G18KT P6SM FEW050 SCT120 BKN200
     FM010000 23007KT P6SM SCT050 BKN080
     FM011200 30006KT P6SM BKN035
     FM011600 03008KT P6SM SCT040 BKN080=



000
FTUS42 KCHS 311733
TAFSAV
TAF
KSAV 311733Z 3118/0118 28008KT P6SM FEW040
     FM311900 23012G18KT P6SM FEW050 SCT120 BKN200
     FM010000 23007KT P6SM SCT050 BKN080
     FM011200 30006KT P6SM BKN035
     FM011600 03008KT P6SM SCT040 BKN080=



000
FTUS42 KCHS 311733
TAFCHS
TAF
KCHS 311733Z 3118/0118 26010G18KT P6SM FEW250
     FM311900 23012G20KT P6SM FEW120
     FM312300 21010KT P6SM FEW050 SCT120 BKN200
     FM010700 29006KT P6SM SCT050 BKN250
     FM011400 04010KT P6SM FEW050=



000
FTUS42 KCHS 311316 AAA
TAFSAV
TAF AMD
KSAV 311316Z 3113/0112 26006KT P6SM FEW040
     FM311900 23013G19KT P6SM FEW050 SCT120 BKN200
     FM010000 23007KT P6SM FEW050 BKN080=



000
FTUS42 KCHS 311316 AAA
TAFSAV
TAF AMD
KSAV 311316Z 3113/0112 26006KT P6SM FEW040
     FM311900 23013G19KT P6SM FEW050 SCT120 BKN200
     FM010000 23007KT P6SM FEW050 BKN080=



000
FTUS42 KCHS 311120
TAFSAV
TAF
KSAV 311120Z 3112/0112 00000KT 1/2SM FG VV002
     FM311300 00000KT 2SM BR BKN005
     FM311400 25007KT P6SM FEW040
     FM311900 23013G19KT P6SM FEW050 SCT120 BKN200
     FM010000 23007KT P6SM FEW050 BKN080=



000
FTUS42 KCHS 311120
TAFCHS
TAF
KCHS 311120Z 3112/0112 27006KT P6SM SKC
     FM311900 23014G22KT P6SM FEW120
     FM312300 21010KT P6SM FEW050 SCT120 BKN200
     FM010700 29006KT P6SM BKN250=



000
FTUS42 KCHS 310919 CCB
TAFSAV
TAF COR
KSAV 310919Z 3109/0106 00000KT 3/4SM BR VV002
     FM311300 26006KT P6SM FEW040
     FM311900 24013G19KT P6SM FEW050 SCT120 BKN200
     FM010000 22007KT P6SM FEW060 BKN120=



000
FTUS42 KCHS 310906 CCA
TAFSAV
TAF COR
KSAV 310906Z 3109/0106 00000KT 3/4SM BR VV002
      TEMPO 3109/3111 1/4SM FG
     FM311300 26006KT P6SM FEW040
     FM311900 24013G19KT P6SM FEW050 SCT120 BKN200
     FM010000 22007KT P6SM FEW060 BKN120=



000
FTUS42 KCHS 310857 AAB
TAFSAV
TAF AMD
KSAV 310857Z 3109/0106 00000KT 3/4SM BR VV002
     FM311300 26006KT P6SM FEW040
     FM311900 24013G19KT P6SM FEW050 SCT120 BKN200
     FM010000 22007KT P6SM FEW060 BKN120=



000
FTUS42 KCHS 310857 AAB
TAFSAV
TAF AMD
KSAV 310857Z 3109/0106 00000KT 3/4SM BR VV002
     FM311300 26006KT P6SM FEW040
     FM311900 24013G19KT P6SM FEW050 SCT120 BKN200
     FM010000 22007KT P6SM FEW060 BKN120=



000
FTUS42 KCHS 310813 AAA
TAFSAV
TAF AMD
KSAV 310813Z 3108/0106 00000KT 3SM BR FEW005
     FM311300 26006KT P6SM FEW040
     FM311900 24013G19KT P6SM FEW050 SCT120 BKN200
     FM010000 22007KT P6SM FEW060 BKN120=



000
FTUS42 KCHS 310521
TAFSAV
TAF
KSAV 310521Z 3106/0106 26006KT P6SM FEW040
     FM311900 24013G19KT P6SM FEW050 SCT120 BKN200
     FM010000 22007KT P6SM FEW060 BKN120=



000
FTUS42 KCHS 310521
TAFCHS
TAF
KCHS 310521Z 3106/0106 27006KT P6SM SKC
     FM311900 23014G22KT P6SM FEW120
     FM312300 21009KT P6SM FEW050 BKN200=



000
FTUS42 KCHS 310521
TAFSAV
TAF
KSAV 310521Z 3106/0106 26006KT P6SM FEW040
     FM311900 24013G19KT P6SM FEW050 SCT120 BKN200
     FM010000 22007KT P6SM FEW060 BKN120=



000
FTUS42 KCHS 310521
TAFCHS
TAF
KCHS 310521Z 3106/0106 27006KT P6SM SKC
     FM311900 23014G22KT P6SM FEW120
     FM312300 21009KT P6SM FEW050 BKN200=



000
FTUS42 KCHS 302326
TAFCHS
TAF
KCHS 302326Z 3100/3124 27007KT P6SM SKC
     FM310200 VRB04KT P6SM SKC
     FM311500 24008KT P6SM SKC
     FM311800 22015G20KT P6SM SCT100=



000
FTUS42 KCHS 302326
TAFSAV
TAF
KSAV 302326Z 3100/3124 27007KT P6SM SCT035
     FM310200 VRB04KT P6SM SKC
     FM311500 24007KT P6SM FEW050
     FM312000 24015G20KT P6SM BKN100=



000
FTUS42 KCHS 301720
TAFSAV
TAF
KSAV 301720Z 3018/3118 25016G24KT P6SM VCSH BKN050
     FM302200 27012KT P6SM BKN050
     FM310100 VRB02KT P6SM SKC
     FM311500 24007KT P6SM FEW250=



000
FTUS42 KCHS 301720
TAFCHS
TAF
KCHS 301720Z 3018/3118 25014G22KT P6SM VCSH BKN040
     FM302200 27009KT P6SM FEW050
     FM310100 VRB03KT P6SM SKC
     FM311500 22008KT P6SM SKC=



000
FTUS42 KCHS 301720
TAFCHS
TAF
KCHS 301720Z 3018/3118 25014G22KT P6SM VCSH BKN040
     FM302200 27009KT P6SM FEW050
     FM310100 VRB03KT P6SM SKC
     FM311500 22008KT P6SM SKC=



000
FTUS42 KCHS 301720
TAFSAV
TAF
KSAV 301720Z 3018/3118 25016G24KT P6SM VCSH BKN050
     FM302200 27012KT P6SM BKN050
     FM310100 VRB02KT P6SM SKC
     FM311500 24007KT P6SM FEW250=



000
FTUS42 KCHS 301511 AAA
TAFSAV
TAF AMD
KSAV 301511Z 3015/3112 25016G24KT P6SM -SHRA BKN050
     FM301900 24012KT P6SM BKN050
     FM302200 27009KT P6SM SCT050
     FM310100 VRB02KT P6SM SKC=



000
FTUS42 KCHS 301408 AAA
TAFCHS
TAF AMD
KCHS 301408Z 3014/3112 24016G25KT P6SM VCSH BKN040
     FM302200 27009KT P6SM FEW050
     FM310100 VRB03KT P6SM FEW050=



000
FTUS42 KCHS 301408 AAA
TAFCHS
TAF AMD
KCHS 301408Z 3014/3112 24016G25KT P6SM VCSH BKN040
     FM302200 27009KT P6SM FEW050
     FM310100 VRB03KT P6SM FEW050=



000
FTUS42 KCHS 301120
TAFSAV
TAF
KSAV 301120Z 3012/3112 21007KT P6SM FEW070
     FM301500 24016G24KT P6SM BKN050
     FM302200 27009KT P6SM SCT050
     FM310100 VRB02KT P6SM SKC=



000
FTUS42 KCHS 301120
TAFCHS
TAF
KCHS 301120Z 3012/3112 21010KT P6SM FEW060
     FM301430 24016G25KT P6SM BKN050
     FM302200 27009KT P6SM FEW050
     FM310100 VRB03KT P6SM FEW050=



000
FTUS42 KCHS 301120
TAFCHS
TAF
KCHS 301120Z 3012/3112 21010KT P6SM FEW060
     FM301430 24016G25KT P6SM BKN050
     FM302200 27009KT P6SM FEW050
     FM310100 VRB03KT P6SM FEW050=



000
FTUS42 KCHS 301120
TAFSAV
TAF
KSAV 301120Z 3012/3112 21007KT P6SM FEW070
     FM301500 24016G24KT P6SM BKN050
     FM302200 27009KT P6SM SCT050
     FM310100 VRB02KT P6SM SKC=



000
FTUS42 KCHS 300520
TAFCHS
TAF
KCHS 300520Z 3006/3106 22005KT P6SM SKC
     FM301400 24015G23KT P6SM BKN045
     FM302300 27006KT P6SM FEW050=



000
FTUS42 KCHS 300520
TAFSAV
TAF
KSAV 300520Z 3006/3106 20004KT P6SM SKC
     FM301430 24016G24KT P6SM BKN050
     FM302300 26004KT P6SM FEW050=



000
FTUS42 KCHS 300520
TAFSAV
TAF
KSAV 300520Z 3006/3106 20004KT P6SM SKC
     FM301430 24016G24KT P6SM BKN050
     FM302300 26004KT P6SM FEW050=



000
FTUS42 KCHS 300520
TAFCHS
TAF
KCHS 300520Z 3006/3106 22005KT P6SM SKC
     FM301400 24015G23KT P6SM BKN045
     FM302300 27006KT P6SM FEW050=



000
FTUS42 KCHS 292326
TAFSAV
TAF
KSAV 292326Z 3000/3024 19003KT P6SM SKC
     FM301200 21008KT P6SM SCT060
     FM301430 24014G21KT P6SM BKN050
     FM302100 26011G16KT P6SM SCT050=



000
FTUS42 KCHS 292326
TAFCHS
TAF
KCHS 292326Z 3000/3024 18003KT P6SM SKC
     FM301200 23009KT P6SM SCT060
     FM301400 25015G23KT P6SM BKN045
     FM302100 24012G17KT P6SM SCT050=



000
FTUS42 KCHS 291734
TAFCHS
TAF
KCHS 291734Z 2918/3018 04008KT P6SM SKC
     FM292100 15005KT P6SM SKC
     FM300800 21004KT P6SM FEW080
     FM301400 24015G21KT P6SM BKN050=



000
FTUS42 KCHS 291734
TAFSAV
TAF
KSAV 291734Z 2918/3018 08010KT P6SM SKC
     FM292100 13006KT P6SM SKC
     FM300100 18003KT P6SM FEW080
     FM301500 24015G21KT P6SM BKN050=



000
FTUS42 KCHS 291734
TAFCHS
TAF
KCHS 291734Z 2918/3018 04008KT P6SM SKC
     FM292100 15005KT P6SM SKC
     FM300800 21004KT P6SM FEW080
     FM301400 24015G21KT P6SM BKN050=



000
FTUS42 KCHS 291734
TAFSAV
TAF
KSAV 291734Z 2918/3018 08010KT P6SM SKC
     FM292100 13006KT P6SM SKC
     FM300100 18003KT P6SM FEW080
     FM301500 24015G21KT P6SM BKN050=



000
FTUS42 KCHS 291120
TAFSAV
TAF
KSAV 291120Z 2912/3012 04010KT P6SM SKC
     FM292100 13006KT P6SM SKC
     FM300100 18003KT P6SM SKC=



000
FTUS42 KCHS 291120
TAFCHS
TAF
KCHS 291120Z 2912/3012 04010KT P6SM SKC
     FM292100 15005KT P6SM SKC
     FM300800 21004KT P6SM FEW050=



000
FTUS42 KCHS 291120
TAFCHS
TAF
KCHS 291120Z 2912/3012 04010KT P6SM SKC
     FM292100 15005KT P6SM SKC
     FM300800 21004KT P6SM FEW050=



000
FTUS42 KCHS 291120
TAFSAV
TAF
KSAV 291120Z 2912/3012 04010KT P6SM SKC
     FM292100 13006KT P6SM SKC
     FM300100 18003KT P6SM SKC=



    US Dept of Commerce
    National Oceanic and Atmospheric Administration
    National Weather Service
    1325 East West Highway
    Silver Spring, MD 20910
    Page Author: NWS Internet Services Team
Disclaimer
Information Quality
Credits
Glossary
Privacy Policy
Freedom of Information Act (FOIA)
About Us
Career Opportunities